createdAt,value
2023-03-12T00:01:23.442Z,95.10
2023-03-12T00:03:50.361Z,95.20
2023-03-12T00:06:18.427Z,95.20
2023-03-12T00:08:45.326Z,95.30
2023-03-12T00:11:13.646Z,95.40
2023-03-12T00:13:40.822Z,95.40
2023-03-12T00:16:14.853Z,95.60
2023-03-12T00:18:42.334Z,95.10
2023-03-12T00:21:09.483Z,95.30
2023-03-12T00:23:36.642Z,95.20
2023-03-12T00:26:05.433Z,95.50
2023-03-12T00:28:32.418Z,94.90
2023-03-12T00:30:59.279Z,95.00
2023-03-12T00:33:26.352Z,94.90
2023-03-12T00:35:53.755Z,95.40
2023-03-12T00:38:20.591Z,94.80
2023-03-12T00:40:47.597Z,94.90
2023-03-12T00:43:14.762Z,95.10
2023-03-12T00:45:41.584Z,95.00
2023-03-12T00:48:08.324Z,94.50
2023-03-12T00:50:35.046Z,94.60
2023-03-12T00:53:01.823Z,94.90
2023-03-12T00:55:28.569Z,94.80
2023-03-12T00:57:55.266Z,95.10
2023-03-12T01:00:22.449Z,94.60
2023-03-12T01:02:49.256Z,95.00
2023-03-12T01:05:16.082Z,94.90
2023-03-12T01:07:42.956Z,94.80
2023-03-12T01:10:10.280Z,95.40
2023-03-12T01:12:37.159Z,95.00
2023-03-12T01:15:04.113Z,94.90
2023-03-12T01:17:30.879Z,95.00
2023-03-12T01:19:57.662Z,94.80
2023-03-12T01:22:24.518Z,94.70
2023-03-12T01:24:51.298Z,94.70
2023-03-12T01:27:18.076Z,94.80
2023-03-12T01:29:44.821Z,94.50
2023-03-12T01:32:11.573Z,94.70
2023-03-12T01:34:38.306Z,94.80
2023-03-12T01:37:05.176Z,94.60
2023-03-12T01:39:31.947Z,94.80
2023-03-12T01:41:58.792Z,94.80
2023-03-12T01:44:25.577Z,95.00
2023-03-12T01:46:52.318Z,95.20
2023-03-12T01:49:27.897Z,95.10
2023-03-12T01:51:57.599Z,95.10
2023-03-12T01:54:24.285Z,95.10
2023-03-12T01:56:51.642Z,95.30
2023-03-12T01:59:26.322Z,95.10
2023-03-12T02:01:53.326Z,95.30
2023-03-12T02:04:21.956Z,95.10
2023-03-12T02:06:51.150Z,95.00
2023-03-12T02:09:20.293Z,94.90
2023-03-12T02:11:47.119Z,95.10
2023-03-12T02:14:13.876Z,95.30
2023-03-12T02:16:40.935Z,95.40
2023-03-12T02:19:13.753Z,95.50
2023-03-12T02:21:40.749Z,95.60
2023-03-12T02:24:24.490Z,95.60
2023-03-12T02:26:51.522Z,95.40
2023-03-12T02:29:18.322Z,95.50
2023-03-12T02:31:48.688Z,95.70
2023-03-12T02:34:15.525Z,95.40
2023-03-12T02:36:42.263Z,95.20
2023-03-12T02:39:11.111Z,95.10
2023-03-12T02:41:39.532Z,94.90
2023-03-12T02:44:06.227Z,94.90
2023-03-12T02:46:35.077Z,95.10
2023-03-12T02:49:02.180Z,95.00
2023-03-12T02:51:28.911Z,95.10
2023-03-12T02:53:55.950Z,94.70
2023-03-12T02:56:24.574Z,95.10
2023-03-12T02:58:51.358Z,95.20
2023-03-12T03:01:18.227Z,95.20
2023-03-12T03:03:45.290Z,95.10
2023-03-12T03:06:12.244Z,95.30
2023-03-12T03:08:38.978Z,94.90
2023-03-12T03:11:06.325Z,95.10
2023-03-12T03:13:33.603Z,95.20
2023-03-12T03:16:02.049Z,95.40
2023-03-12T03:18:29.268Z,95.30
2023-03-12T03:21:00.111Z,95.30
2023-03-12T03:23:26.942Z,95.10
2023-03-12T03:25:53.806Z,95.20
2023-03-12T03:28:21.182Z,95.50
2023-03-12T03:30:48.197Z,95.40
2023-03-12T03:33:15.131Z,95.30
2023-03-12T03:35:41.941Z,95.50
2023-03-12T03:38:08.682Z,95.20
2023-03-12T03:40:35.527Z,95.50
2023-03-12T03:43:02.277Z,95.20
2023-03-12T03:45:29.006Z,94.80
2023-03-12T03:47:55.923Z,94.70
2023-03-12T03:50:22.885Z,94.80
2023-03-12T03:52:49.619Z,95.10
2023-03-12T03:55:16.435Z,95.30
2023-03-12T03:57:43.167Z,95.00
2023-03-12T04:00:13.118Z,95.10
2023-03-12T04:02:40.059Z,95.20
2023-03-12T04:05:06.968Z,95.30
2023-03-12T04:07:33.731Z,95.50
2023-03-12T04:10:00.527Z,95.60
2023-03-12T04:12:28.109Z,95.70
2023-03-12T04:14:54.844Z,95.30
2023-03-12T04:17:21.728Z,95.40
2023-03-12T04:19:48.590Z,95.10
2023-03-12T04:22:15.382Z,95.60
2023-03-12T04:24:42.184Z,95.40
2023-03-12T04:27:08.911Z,94.60
2023-03-12T04:29:35.659Z,94.00
2023-03-12T04:32:02.488Z,94.00
2023-03-12T04:34:29.234Z,94.30
2023-03-12T04:36:55.984Z,94.20
2023-03-12T04:39:22.843Z,94.80
2023-03-12T04:41:49.637Z,94.90
2023-03-12T04:44:25.073Z,94.50
2023-03-12T04:46:51.867Z,95.10
2023-03-12T04:49:18.691Z,95.00
2023-03-12T04:51:45.395Z,95.10
2023-03-12T04:54:12.317Z,94.90
2023-03-12T04:56:39.041Z,94.60
2023-03-12T04:59:05.814Z,95.00
2023-03-12T05:01:33.929Z,94.60
2023-03-12T05:04:00.775Z,95.30
2023-03-12T05:06:27.525Z,94.80
2023-03-12T05:08:54.269Z,93.90
2023-03-12T05:11:21.437Z,93.80
2023-03-12T05:13:48.485Z,94.50
2023-03-12T05:16:15.842Z,94.90
2023-03-12T05:18:43.044Z,94.60
2023-03-12T05:21:11.962Z,94.50
2023-03-12T05:23:39.661Z,93.50
2023-03-12T05:26:06.655Z,93.30
2023-03-12T05:28:33.382Z,93.90
2023-03-12T05:31:01.188Z,94.10
2023-03-12T05:33:28.495Z,94.10
2023-03-12T05:35:55.261Z,93.90
2023-03-12T05:38:22.078Z,93.90
2023-03-12T05:40:53.420Z,94.30
2023-03-12T05:43:20.232Z,94.10
2023-03-12T05:45:47.237Z,94.50
2023-03-12T05:48:14.005Z,94.00
2023-03-12T05:50:40.903Z,94.10
2023-03-12T05:53:15.184Z,94.00
2023-03-12T05:55:41.873Z,94.10
2023-03-12T05:58:09.672Z,93.80
2023-03-12T06:00:38.238Z,93.90
2023-03-12T06:03:05.404Z,93.70
2023-03-12T06:05:32.668Z,93.90
2023-03-12T06:07:59.605Z,94.00
2023-03-12T06:10:26.497Z,94.10
2023-03-12T06:12:53.296Z,93.70
2023-03-12T06:15:20.073Z,93.40
2023-03-12T06:17:46.845Z,94.10
2023-03-12T06:20:13.708Z,92.90
2023-03-12T06:22:40.486Z,92.70
2023-03-12T06:25:07.367Z,92.70
2023-03-12T06:27:34.081Z,92.70
2023-03-12T06:30:00.919Z,92.90
2023-03-12T06:32:27.727Z,92.10
2023-03-12T06:34:54.480Z,92.10
2023-03-12T06:37:21.332Z,92.30
2023-03-12T06:39:48.037Z,91.80
2023-03-12T06:42:15.299Z,92.20
2023-03-12T06:44:42.121Z,91.70
2023-03-12T06:47:08.867Z,91.60
2023-03-12T06:49:36.766Z,91.60
2023-03-12T06:52:03.985Z,91.00
2023-03-12T06:54:30.762Z,91.40
2023-03-12T06:56:59.395Z,91.60
2023-03-12T06:59:26.688Z,90.80
2023-03-12T07:01:53.806Z,91.00
2023-03-12T07:04:20.625Z,90.90
2023-03-12T07:06:51.398Z,90.60
2023-03-12T07:09:18.778Z,91.00
2023-03-12T07:11:45.519Z,90.30
2023-03-12T07:14:12.539Z,90.00
2023-03-12T07:16:39.259Z,90.40
2023-03-12T07:19:06.272Z,90.60
2023-03-12T07:21:33.131Z,90.60
2023-03-12T07:24:00.992Z,90.50
2023-03-12T07:26:27.846Z,90.10
2023-03-12T07:28:54.783Z,90.30
2023-03-12T07:31:21.517Z,90.40
2023-03-12T07:33:48.357Z,90.80
2023-03-12T07:36:15.348Z,90.20
2023-03-12T07:38:42.196Z,90.40
2023-03-12T07:41:09.029Z,90.10
2023-03-12T07:43:35.933Z,89.80
2023-03-12T07:46:02.714Z,90.20
2023-03-12T07:48:29.463Z,89.50
2023-03-12T07:50:56.371Z,90.00
2023-03-12T07:53:23.063Z,90.00
2023-03-12T07:55:50.326Z,89.50
2023-03-12T07:58:17.667Z,89.30
2023-03-12T08:00:44.650Z,88.60
2023-03-12T08:03:11.868Z,89.10
2023-03-12T08:05:39.017Z,90.00
2023-03-12T08:08:06.246Z,88.70
2023-03-12T08:10:33.008Z,89.00
2023-03-12T08:12:59.898Z,87.30
2023-03-12T08:15:26.654Z,87.60
2023-03-12T08:17:53.394Z,87.50
2023-03-12T08:20:20.194Z,87.20
2023-03-12T08:22:46.962Z,87.50
2023-03-12T08:25:13.806Z,87.90
2023-03-12T08:27:40.596Z,87.90
2023-03-12T08:30:07.583Z,87.30
2023-03-12T08:32:34.523Z,87.60
2023-03-12T08:35:01.393Z,88.60
2023-03-12T08:37:28.235Z,88.30
2023-03-12T08:39:55.084Z,88.30
2023-03-12T08:42:21.873Z,88.70
2023-03-12T08:44:48.601Z,88.70
2023-03-12T08:47:15.312Z,88.10
2023-03-12T08:49:42.036Z,87.60
2023-03-12T08:52:08.790Z,88.40
2023-03-12T08:54:35.611Z,88.70
2023-03-12T08:57:02.713Z,89.80
2023-03-12T08:59:29.462Z,89.10
2023-03-12T09:01:56.196Z,87.80
2023-03-12T09:04:23.032Z,88.10
2023-03-12T09:06:49.843Z,87.70
2023-03-12T09:09:16.628Z,87.80
2023-03-12T09:11:43.554Z,87.50
2023-03-12T09:16:57.681Z,87.70
2023-03-12T09:19:24.600Z,87.50
2023-03-12T09:21:53.178Z,87.70
2023-03-12T09:24:20.016Z,87.30
2023-03-12T09:26:47.082Z,86.60
2023-03-12T09:29:13.874Z,86.70
2023-03-12T09:31:40.736Z,86.90
2023-03-12T09:34:07.535Z,86.30
2023-03-12T09:36:34.366Z,86.50
2023-03-12T09:39:02.179Z,87.10
2023-03-12T09:41:34.056Z,86.80
2023-03-12T09:44:12.978Z,86.60
2023-03-12T09:46:48.607Z,87.80
2023-03-12T09:49:34.228Z,87.60
2023-03-12T09:52:02.867Z,87.30
2023-03-12T09:54:34.692Z,87.70
2023-03-12T09:57:03.993Z,88.10
2023-03-12T09:59:30.727Z,88.70
2023-03-12T10:02:00.239Z,88.10
2023-03-12T10:04:45.422Z,88.90
2023-03-12T10:07:28.816Z,88.70
2023-03-12T10:10:07.729Z,88.80
2023-03-12T10:12:53.401Z,89.40
2023-03-12T10:15:38.761Z,89.20
2023-03-12T10:18:15.344Z,89.00
2023-03-12T10:20:51.272Z,89.20
2023-03-12T10:23:17.972Z,90.00
2023-03-12T10:26:03.588Z,90.00
2023-03-12T10:28:44.840Z,90.10
2023-03-12T10:31:29.487Z,90.00
2023-03-12T10:33:57.437Z,90.00
2023-03-12T10:36:26.255Z,89.80
2023-03-12T10:38:53.023Z,90.30
2023-03-12T10:41:28.308Z,90.00
2023-03-12T10:43:55.937Z,90.00
2023-03-12T10:46:52.212Z,90.10
2023-03-12T10:49:21.935Z,90.30
2023-03-12T10:51:57.897Z,89.70
2023-03-12T10:54:29.355Z,89.80
2023-03-12T10:56:56.158Z,90.00
2023-03-12T10:59:25.783Z,90.20
2023-03-12T11:01:53.102Z,90.40
2023-03-12T11:04:22.626Z,90.50
2023-03-12T11:07:08.253Z,90.50
2023-03-12T11:09:34.976Z,90.70
2023-03-12T11:12:01.735Z,90.30
2023-03-12T11:14:30.070Z,90.40
2023-03-12T11:16:57.390Z,90.30
2023-03-12T11:19:31.764Z,90.50
2023-03-12T11:22:00.223Z,90.50
2023-03-12T11:24:27.113Z,90.60
2023-03-12T11:26:57.301Z,90.80
2023-03-12T11:29:29.931Z,90.60
2023-03-12T11:31:56.679Z,90.50
2023-03-12T11:34:28.487Z,90.60
2023-03-12T11:37:00.933Z,90.50
2023-03-12T11:39:30.630Z,90.70
2023-03-12T11:42:13.921Z,90.80
2023-03-12T11:44:53.636Z,90.60
2023-03-12T11:47:43.518Z,90.70
2023-03-12T11:50:28.688Z,90.50
2023-03-12T11:52:55.433Z,90.40
2023-03-12T11:55:40.632Z,90.60
2023-03-12T11:58:27.597Z,90.40
2023-03-12T12:00:54.303Z,90.50
2023-03-12T12:03:35.061Z,90.50
2023-03-12T12:06:05.208Z,90.50
2023-03-12T12:08:37.832Z,90.50
2023-03-12T12:11:15.131Z,90.40
2023-03-12T12:13:44.861Z,90.60
2023-03-12T12:16:11.609Z,90.20
2023-03-12T12:18:38.301Z,90.40
2023-03-12T12:21:08.212Z,90.20
2023-03-12T12:23:52.424Z,90.30
2023-03-12T12:26:21.981Z,90.30
2023-03-12T12:29:01.376Z,90.40
2023-03-12T12:31:44.718Z,90.50
2023-03-12T12:34:30.229Z,90.80
2023-03-12T12:37:03.045Z,90.60
2023-03-12T12:39:32.613Z,90.10
2023-03-12T12:42:02.419Z,90.00
2023-03-12T12:44:38.336Z,90.20
2023-03-12T12:47:06.857Z,90.10
2023-03-12T12:49:42.881Z,89.80
2023-03-12T12:52:12.127Z,89.70
2023-03-12T12:54:50.800Z,90.70
2023-03-12T12:57:20.254Z,90.10
2023-03-12T12:59:50.631Z,89.60
2023-03-12T13:02:19.699Z,88.90
2023-03-12T13:04:46.622Z,90.10
2023-03-12T13:07:13.395Z,89.00
2023-03-12T13:09:41.887Z,90.20
2023-03-12T13:12:25.253Z,90.10
2023-03-12T13:14:53.556Z,90.20
2023-03-12T13:17:30.974Z,89.90
2023-03-12T13:20:12.175Z,89.20
2023-03-12T13:22:38.866Z,89.70
2023-03-12T13:25:24.126Z,88.70
2023-03-12T13:27:58.535Z,89.20
2023-03-12T13:30:34.205Z,89.50
2023-03-12T13:33:03.791Z,90.20
2023-03-12T13:35:32.619Z,90.40
2023-03-12T13:38:02.014Z,89.40
2023-03-12T13:40:28.696Z,89.00
2023-03-12T13:43:21.633Z,89.60
2023-03-12T13:45:48.457Z,89.00
2023-03-12T13:48:16.668Z,88.10
2023-03-12T13:50:54.026Z,88.50
2023-03-12T13:53:25.741Z,89.20
2023-03-12T13:56:04.183Z,88.30
2023-03-12T13:58:31.110Z,88.20
2023-03-12T14:00:57.772Z,88.40
2023-03-12T14:03:28.337Z,88.40
2023-03-12T14:05:55.064Z,88.20
2023-03-12T14:08:30.658Z,87.90
2023-03-12T14:11:14.111Z,88.60
2023-03-12T14:13:59.799Z,88.50
2023-03-12T14:16:46.491Z,87.90
2023-03-12T14:19:14.413Z,88.40
2023-03-12T14:21:43.429Z,88.30
2023-03-12T14:24:17.394Z,89.30
2023-03-12T14:26:45.578Z,90.00
2023-03-12T14:29:18.396Z,89.50
2023-03-12T14:31:45.882Z,88.70
2023-03-12T14:34:21.259Z,88.90
2023-03-12T14:36:50.838Z,87.70
2023-03-12T14:39:23.523Z,88.20
2023-03-12T14:41:54.837Z,88.00
2023-03-12T14:44:25.999Z,87.10
2023-03-12T14:47:00.007Z,87.20
2023-03-12T14:49:27.439Z,88.00
2023-03-12T14:51:54.325Z,87.70
2023-03-12T14:54:24.111Z,87.80
2023-03-12T14:56:51.484Z,87.90
2023-03-12T14:59:24.415Z,86.90
2023-03-12T15:01:51.663Z,87.20
2023-03-12T15:04:20.644Z,87.70
2023-03-12T15:06:49.402Z,88.30
2023-03-12T15:09:20.824Z,87.00
2023-03-12T15:11:58.769Z,87.00
2023-03-12T15:14:27.470Z,87.10
2023-03-12T15:16:54.274Z,88.60
2023-03-12T15:19:23.214Z,88.50
2023-03-12T15:21:50.689Z,88.00
2023-03-12T15:24:18.186Z,88.30
2023-03-12T15:26:45.031Z,88.30
2023-03-12T15:29:14.587Z,88.30
2023-03-12T15:31:42.959Z,88.60
2023-03-12T15:34:11.484Z,88.10
2023-03-12T15:36:44.935Z,88.80
2023-03-12T15:39:23.117Z,88.80
2023-03-12T15:41:50.168Z,88.80
2023-03-12T15:44:20.881Z,88.60
2023-03-12T15:46:52.594Z,88.50
2023-03-12T15:49:22.349Z,89.10
2023-03-12T15:52:26.554Z,89.00
2023-03-12T15:55:19.313Z,89.10
2023-03-12T15:57:50.269Z,88.50
2023-03-12T16:00:17.631Z,88.70
2023-03-12T16:02:49.348Z,88.30
2023-03-12T16:05:16.486Z,88.00
2023-03-12T16:07:43.239Z,88.60
2023-03-12T16:10:13.152Z,88.70
2023-03-12T16:12:40.202Z,89.20
2023-03-12T16:15:07.303Z,90.00
2023-03-12T16:17:34.035Z,90.00
2023-03-12T16:20:00.919Z,90.20
2023-03-12T16:22:27.679Z,90.20
2023-03-12T16:24:54.433Z,90.10
2023-03-12T16:27:32.005Z,90.50
2023-03-12T16:29:59.345Z,90.40
2023-03-12T16:32:26.336Z,90.60
2023-03-12T16:34:53.101Z,90.70
2023-03-12T16:37:19.809Z,90.80
2023-03-12T16:39:48.442Z,90.60
2023-03-12T16:42:16.808Z,90.80
2023-03-12T16:44:46.033Z,90.90
2023-03-12T16:47:13.435Z,91.00
2023-03-12T16:49:40.325Z,90.90
2023-03-12T16:52:20.190Z,91.40
2023-03-12T16:54:50.195Z,91.20
2023-03-12T16:57:29.164Z,91.40
2023-03-12T16:59:55.854Z,91.50
2023-03-12T17:02:22.646Z,91.60
2023-03-12T17:04:51.158Z,91.80
2023-03-12T17:07:18.151Z,92.30
2023-03-12T17:09:44.924Z,92.30
2023-03-12T17:12:32.171Z,92.30
2023-03-12T17:15:00.051Z,92.00
2023-03-12T17:17:26.790Z,91.90
2023-03-12T17:19:53.706Z,92.30
2023-03-12T17:22:20.743Z,92.10
2023-03-12T17:24:47.568Z,93.40
2023-03-12T17:27:15.549Z,93.30
2023-03-12T17:29:42.319Z,92.30
2023-03-12T17:32:09.200Z,92.30
2023-03-12T17:34:35.997Z,92.70
2023-03-12T17:37:02.836Z,93.10
2023-03-12T17:39:29.579Z,92.90
2023-03-12T17:41:56.364Z,92.20
2023-03-12T17:44:23.125Z,92.30
2023-03-12T17:46:59.272Z,91.90
2023-03-12T17:49:26.584Z,91.80
2023-03-12T17:51:53.294Z,92.00
2023-03-12T17:54:20.098Z,92.30
2023-03-12T17:56:46.863Z,92.10
2023-03-12T17:59:13.593Z,92.30
2023-03-12T18:01:40.322Z,91.70
2023-03-12T18:04:07.049Z,92.00
2023-03-12T18:06:33.763Z,92.10
2023-03-12T18:09:00.476Z,92.30
2023-03-12T18:11:27.333Z,91.70
2023-03-12T18:13:54.123Z,91.70
2023-03-12T18:16:20.861Z,92.00
2023-03-12T18:18:47.757Z,91.90
2023-03-12T18:21:14.514Z,92.00
2023-03-12T18:23:42.683Z,92.30
2023-03-12T18:26:09.729Z,92.40
2023-03-12T18:28:36.635Z,92.50
2023-03-12T18:31:04.004Z,92.40
2023-03-12T18:33:31.152Z,92.60
2023-03-12T18:35:58.006Z,92.10
2023-03-12T18:38:25.241Z,92.20
2023-03-12T18:40:52.429Z,92.20
2023-03-12T18:43:21.679Z,92.50
2023-03-12T18:45:50.100Z,92.50
2023-03-12T18:48:17.343Z,92.30
2023-03-12T18:50:44.169Z,91.80
2023-03-12T18:53:10.885Z,92.50
2023-03-12T18:55:37.789Z,92.90
2023-03-12T18:58:04.567Z,92.20
2023-03-12T19:00:31.695Z,92.40
2023-03-12T19:02:58.607Z,92.40
2023-03-12T19:05:25.791Z,92.30
2023-03-12T19:07:52.674Z,93.00
2023-03-12T19:10:19.552Z,92.50
2023-03-12T19:12:52.755Z,92.40
2023-03-12T19:15:21.728Z,92.90
2023-03-12T19:17:48.472Z,92.60
2023-03-12T19:20:15.743Z,92.90
2023-03-12T19:22:42.530Z,92.90
2023-03-12T19:25:09.358Z,92.90
2023-03-12T19:27:36.073Z,92.50
2023-03-12T19:30:02.972Z,92.50
2023-03-12T19:32:40.707Z,92.60
2023-03-12T19:35:11.080Z,92.40
2023-03-12T19:37:37.940Z,92.70
2023-03-12T19:40:05.986Z,92.70
2023-03-12T19:42:32.851Z,92.30
2023-03-12T19:44:59.750Z,92.70
2023-03-12T19:47:26.866Z,92.30
2023-03-12T19:49:53.715Z,92.50
2023-03-12T19:52:20.509Z,92.90
2023-03-12T19:55:01.565Z,92.50
2023-03-12T19:57:31.643Z,92.80
2023-03-12T19:59:58.598Z,92.40
2023-03-12T20:02:26.122Z,92.30
2023-03-12T20:04:53.251Z,92.10
2023-03-12T20:07:20.041Z,92.30
2023-03-12T20:09:46.813Z,92.40
2023-03-12T20:12:13.665Z,92.20
2023-03-12T20:14:42.655Z,92.70
2023-03-12T20:17:10.013Z,92.50
2023-03-12T20:19:36.978Z,92.70
2023-03-12T20:22:03.748Z,92.50
2023-03-12T20:24:30.649Z,92.90
2023-03-12T20:26:57.484Z,92.40
2023-03-12T20:29:24.231Z,92.70
2023-03-12T20:31:51.328Z,93.20
2023-03-12T20:34:18.369Z,92.70
2023-03-12T20:36:45.096Z,92.70
2023-03-12T20:39:13.187Z,92.90
2023-03-12T20:41:40.035Z,93.00
2023-03-12T20:44:06.782Z,92.90
2023-03-12T20:46:33.569Z,93.00
2023-03-12T20:49:00.423Z,93.10
2023-03-12T20:51:27.239Z,93.20
2023-03-12T20:53:53.995Z,93.20
2023-03-12T20:56:20.775Z,93.20
2023-03-12T20:58:47.526Z,93.10
2023-03-12T21:01:14.384Z,93.10
2023-03-12T21:03:41.248Z,92.90
2023-03-12T21:06:08.064Z,93.00
2023-03-12T21:08:34.961Z,93.20
2023-03-12T21:11:05.015Z,93.00
2023-03-12T21:13:31.736Z,93.20
2023-03-12T21:15:58.481Z,93.20
2023-03-12T21:18:25.367Z,93.20
2023-03-12T21:20:52.372Z,93.10
2023-03-12T21:23:19.131Z,93.50
2023-03-12T21:25:46.130Z,93.00
2023-03-12T21:28:12.911Z,93.20
2023-03-12T21:30:39.749Z,93.20
2023-03-12T21:33:07.407Z,93.20
2023-03-12T21:35:34.250Z,92.80
2023-03-12T21:38:02.607Z,93.10
2023-03-12T21:40:29.458Z,92.80
2023-03-12T21:42:56.284Z,93.00
2023-03-12T21:45:23.149Z,92.60
2023-03-12T21:47:50.162Z,92.50
2023-03-12T21:50:17.033Z,92.80
2023-03-12T21:52:47.874Z,92.80
2023-03-12T21:55:15.179Z,92.80
2023-03-12T21:57:42.356Z,92.60
2023-03-12T22:00:12.928Z,92.60
2023-03-12T22:02:43.516Z,93.00
2023-03-12T22:05:11.006Z,92.80
2023-03-12T22:07:38.182Z,92.70
2023-03-12T22:10:05.901Z,93.10
2023-03-12T22:12:32.787Z,92.70
2023-03-12T22:14:59.655Z,92.80
2023-03-12T22:17:26.553Z,93.10
2023-03-12T22:19:53.306Z,92.80
2023-03-12T22:22:20.093Z,92.60
2023-03-12T22:24:46.975Z,92.70
2023-03-12T22:27:13.771Z,92.70
2023-03-12T22:29:40.587Z,92.50
2023-03-12T22:32:07.497Z,92.30
2023-03-12T22:34:35.041Z,92.60
2023-03-12T22:37:01.747Z,92.60
2023-03-12T22:39:28.596Z,92.40
2023-03-12T22:41:55.374Z,92.70
2023-03-12T22:44:22.169Z,92.90
2023-03-12T22:46:50.433Z,92.90
2023-03-12T22:49:17.309Z,92.80
2023-03-12T22:51:44.039Z,92.70
2023-03-12T22:54:10.919Z,92.70
2023-03-12T22:56:37.626Z,92.50
2023-03-12T22:59:04.350Z,92.70
2023-03-12T23:01:31.194Z,92.80
2023-03-12T23:03:58.074Z,93.10
2023-03-12T23:06:25.753Z,93.10
2023-03-12T23:08:54.849Z,93.20
2023-03-12T23:11:22.325Z,93.30
2023-03-12T23:13:49.772Z,93.30
2023-03-12T23:16:18.429Z,93.30
2023-03-12T23:18:45.563Z,93.30
2023-03-12T23:21:13.886Z,93.10
2023-03-12T23:23:42.246Z,93.20
2023-03-12T23:26:10.953Z,93.20
2023-03-12T23:28:37.695Z,93.10
2023-03-12T23:31:05.825Z,93.10
2023-03-12T23:33:33.025Z,92.90
2023-03-12T23:36:10.786Z,93.00
2023-03-12T23:38:37.770Z,92.50
2023-03-12T23:41:05.950Z,92.60
2023-03-12T23:43:32.715Z,92.90
2023-03-12T23:46:00.665Z,92.90
2023-03-12T23:48:28.074Z,93.10
2023-03-12T23:50:55.149Z,93.50
2023-03-12T23:53:21.882Z,93.30
2023-03-12T23:55:56.621Z,93.20
2023-03-12T23:58:24.039Z,93.20
